logo
Search for airport 
image banner adimage banner adimage banner ad
image banner ad

EHLL - L10-A

Located in , Netherlands

ICAO - , IATA -

Data provided by Airmate  

General information

Coordinates: N53°24'12" E4°12'2"
Elevation is feet MSL.
 
View others Airports in Noord-Holland

Operational data

Special qualification required
Current time UTC:
Current local time:
Weather at : EHKV - K14-Fa-1C ( 41 km )
METAR: EHKV 041225Z AUTO 26028KT 9999 SCT016/// SCT022/// BKN029/// 15/10 Q1022
View NOTAMs / SUP AIP / TFR affecting this airport [VIEW]
Communications frequencies: [VIEW]

Runways:

Airport contact information

Address: Netherlands

Satellite view of EHLL